ADDS METAR Data INFO
IDs: Format: Raw Decoded Include TAF

Data at: 0147 UTC 17 Oct 2017

PABV 170056Z AUTO 28003KT 10SM CLR 03/M05 A2958 RMK AO2 SLP025 T00331050 $
PABV 162356Z AUTO VRB04KT 10SM CLR 03/M04 A2959 RMK AO2 SLP027 T00281039 10028 21044 56002 $
PABV 162256Z AUTO 00000KT 10SM CLR 02/M03 A2959 RMK AO2 SLP027 T00171028 FZRANO $
PABV 162156Z AUTO 00000KT 10SM CLR 01/M02 A2959 RMK AO2 SLP028 T00111022 FZRANO $
PABV 162056Z AUTO 00000KT 10SM SCT007 01/M01 A2959 RMK AO2 SLP028 T00111011 51010 FZRANO $
PABV 162026Z AUTO 00000KT 10SM BKN007 00/M01 A2959 RMK AO2 FZRANO $
PABV 162017Z AUTO 00000KT 10SM SCT007 00/M02 A2959 RMK AO2 FZRANO $
PABV 161956Z AUTO 00000KT 10SM CLR M01/M02 A2958 RMK AO2 SLP026 T10111022 FZRANO $
PABV 161856Z AUTO 20003KT 10SM CLR M03/M04 A2957 RMK AO2 SLP023 T10331039 FZRANO $
PABV 161756Z AUTO 00000KT 10SM CLR M04/M05 A2956 RMK AO2 SLP019 T10441050 11039 21050 53005 FZRANO $
PABV 161656Z AUTO 14003KT 10SM SCT005 M04/M06 A2955 RMK AO2 SLP016 T10441056 FZRANO $
PABV 161614Z AUTO 17003KT 10SM BKN005 M04/M05 A2955 RMK AO2 FZRANO $
PABV 161606Z AUTO 17003KT 10SM SCT005 M04/M06 A2955 RMK AO2 FZRANO $
PABV 161556Z AUTO 14004KT 10SM CLR M05/M06 A2955 RMK AO2 SLP016 T10501056 FZRANO $
PABV 161456Z AUTO 15003KT 10SM CLR M05/M06 A2954 RMK AO2 SLP013 T10501056 53004 FZRANO $
PABV 161356Z AUTO 19003KT 10SM FEW008 M04/M05 A2954 RMK AO2 SLP011 T10441050 FZRANO $
PABV 161345Z AUTO 19004KT 10SM FEW008 M04/M06 A2954 RMK AO2 FZRANO $
PABV 161256Z AUTO 16003KT 10SM CLR M04/M06 A2953 RMK AO2 SLP010 T10441056 FZRANO $
PABV 161156Z AUTO 15003KT 10SM CLR M04/M04 A2953 RMK AO2 SLP009 T10391044 10000 21039 50004 FZRANO $
PABV 161056Z AUTO 16003KT 10SM CLR M04/M05 A2953 RMK AO2 SLP009 T10391050 FZRANO $
PABV 160956Z AUTO 18003KT 10SM BKN090 M03/M05 A2953 RMK AO2 SLP007 T10331050 FZRANO $
PABV 160856Z AUTO 00000KT 10SM OVC085 M02/M03 A2952 RMK AO2 SLP005 T10221033 51007 FZRANO $
PABV 160756Z AUTO 00000KT 10SM BKN085 M02/M03 A2951 RMK AO2 SLP003 T10171033 400331039 FZRANO $
PABV 160656Z AUTO 00000KT 10SM OVC085 M01/M03 A2951 RMK AO2 SLP000 T10111028 FZRANO $
PABV 160556Z AUTO 00000KT 10SM OVC085 M01/M03 A2950 RMK AO2 SLP997 T10061033 10033 21011 53005 FZRANO $
PABV 160456Z AUTO 13003KT 10SM CLR M01/M03 A2949 RMK AO2 SLP994 T10111028 FZRANO $
PABV 160356Z AUTO 14003KT 10SM CLR M01/M02 A2949 RMK AO2 SLP993 T10061022 FZRANO $
PABV 160256Z AUTO 00000KT 10SM CLR 01/M02 A2948 RMK AO2 SLP992 T00111022 56002 FZRANO $
PABV 160156Z AUTO 00000KT 10SM CLR 03/M02 A2948 RMK AO2 SLP992 T00281022 $
PABV 160056Z AUTO 00000KT 10SM CLR 03/M02 A2948 RMK AO2 SLP992 T00331017 $
PABV 152356Z AUTO 00000KT 10SM CLR 03/M02 A2949 RMK AO2 SLP994 T00281022 10033 21028 58001 $
PABV 152256Z AUTO 00000KT 10SM FEW065 03/M02 A2949 RMK AO2 SLP995 T00281017 $
PABV 152156Z AUTO 06003KT 10SM OVC070 02/M02 A2949 RMK AO2 SLP996 T00221017 FZRANO $
PABV 152056Z AUTO 02004KT 10SM OVC070 01/M01 A2949 RMK AO2 SLP995 T00111011 52002 FZRANO $
PABV 152013Z AUTO 01005KT 10SM SCT001 OVC070 00/M01 A2949 RMK AO2 FZRANO $
PABV 151956Z AUTO 04003KT 10SM BKN003 00/M02 A2949 RMK AO2 SLP994 T00001017 FZRANO $
PABV 151942Z AUTO 04005KT 10SM SCT003 M01/M01 A2949 RMK AO2 FZRANO $
PABV 151856Z AUTO 00000KT 10SM CLR M02/M03 A2949 RMK AO2 SLP994 T10171028 FZRANO $
PABV 151756Z AUTO 00000KT 10SM CLR M03/M03 A2949 RMK AO2 SLP993 T10281033 11017 21039 56003 FZRANO $
PABV 151656Z AUTO 00000KT 10SM CLR M03/M04 A2949 RMK AO2 SLP993 T10331039 FZRANO $
PABV 151556Z AUTO 19003KT 10SM CLR M03/M03 A2949 RMK AO2 SLP994 T10281033 FZRANO $
PABV 151456Z AUTO 20003KT 10SM CLR M02/M03 A2949 RMK AO2 SLP996 T10221028 57008 FZRANO $
PABV 151356Z AUTO 00000KT 10SM CLR M03/M03 A2950 RMK AO2 SLP999 T10281033 FZRANO $